sensor_id;sensor_type;location;lat;lon;timestamp;P1;durP1;ratioP1;P2;durP2;ratioP2
7585;SDS011;12459;42.646;23.292;2023-04-25T00:07:02;11.43;;;10.83;;
7585;SDS011;12459;42.646;23.292;2023-04-25T00:22:04;11.63;;;11.03;;
7585;SDS011;12459;42.646;23.292;2023-04-25T00:37:06;11.73;;;11.13;;
7585;SDS011;12459;42.646;23.292;2023-04-25T00:52:08;11.77;;;11.17;;
7585;SDS011;12459;42.646;23.292;2023-04-25T01:07:11;11.40;;;10.80;;
7585;SDS011;12459;42.646;23.292;2023-04-25T01:22:13;11.77;;;11.17;;
7585;SDS011;12459;42.646;23.292;2023-04-25T01:37:16;11.73;;;11.13;;
7585;SDS011;12459;42.646;23.292;2023-04-25T01:52:18;13.13;;;12.43;;
7585;SDS011;12459;42.646;23.292;2023-04-25T02:07:20;11.03;;;10.43;;
7585;SDS011;12459;42.646;23.292;2023-04-25T02:22:22;12.60;;;11.90;;
7585;SDS011;12459;42.646;23.292;2023-04-25T02:37:24;15.13;;;14.33;;
7585;SDS011;12459;42.646;23.292;2023-04-25T02:52:25;11.83;;;11.23;;
7585;SDS011;12459;42.646;23.292;2023-04-25T03:07:27;10.47;;;9.87;;
7585;SDS011;12459;42.646;23.292;2023-04-25T03:22:29;10.50;;;9.90;;
7585;SDS011;12459;42.646;23.292;2023-04-25T03:37:31;14.57;;;13.80;;
7585;SDS011;12459;42.646;23.292;2023-04-25T03:52:32;10.87;;;10.27;;
7585;SDS011;12459;42.646;23.292;2023-04-25T04:07:34;13.10;;;12.40;;
7585;SDS011;12459;42.646;23.292;2023-04-25T04:22:40;11.47;;;10.87;;
7585;SDS011;12459;42.646;23.292;2023-04-25T04:37:42;12.97;;;12.27;;
7585;SDS011;12459;42.646;23.292;2023-04-25T04:52:45;14.20;;;13.50;;
7585;SDS011;12459;42.646;23.292;2023-04-25T05:07:46;12.73;;;12.03;;
7585;SDS011;12459;42.646;23.292;2023-04-25T05:22:48;10.97;;;10.37;;
7585;SDS011;12459;42.646;23.292;2023-04-25T05:37:50;11.67;;;11.07;;
7585;SDS011;12459;42.646;23.292;2023-04-25T05:52:51;11.97;;;11.37;;
7585;SDS011;12459;42.646;23.292;2023-04-25T06:37:56;13.23;;;12.53;;
7585;SDS011;12459;42.646;23.292;2023-04-25T06:52:58;13.33;;;12.63;;
7585;SDS011;12459;42.646;23.292;2023-04-25T07:08:00;15.33;;;14.53;;
7585;SDS011;12459;42.646;23.292;2023-04-25T07:23:02;13.73;;;13.03;;
7585;SDS011;12459;42.646;23.292;2023-04-25T07:53:07;13.63;;;12.93;;
7585;SDS011;12459;42.646;23.292;2023-04-25T08:08:09;14.83;;;14.07;;
7585;SDS011;12459;42.646;23.292;2023-04-25T08:23:11;14.13;;;13.43;;
7585;SDS011;12459;42.646;23.292;2023-04-25T08:38:13;15.47;;;14.67;;
7585;SDS011;12459;42.646;23.292;2023-04-25T08:53:15;17.47;;;16.57;;
7585;SDS011;12459;42.646;23.292;2023-04-25T09:08:20;20.03;;;19.03;;
7585;SDS011;12459;42.646;23.292;2023-04-25T09:23:22;16.80;;;15.97;;
7585;SDS011;12459;42.646;23.292;2023-04-25T09:38:24;19.77;;;18.77;;
7585;SDS011;12459;42.646;23.292;2023-04-25T09:53:26;16.40;;;15.60;;
7585;SDS011;12459;42.646;23.292;2023-04-25T10:08:30;18.90;;;17.93;;
7585;SDS011;12459;42.646;23.292;2023-04-25T10:23:34;20.67;;;19.67;;
7585;SDS011;12459;42.646;23.292;2023-04-25T10:38:38;21.90;;;20.80;;
7585;SDS011;12459;42.646;23.292;2023-04-25T10:53:40;24.50;;;23.30;;
7585;SDS011;12459;42.646;23.292;2023-04-25T11:08:50;25.90;;;24.70;;
7585;SDS011;12459;42.646;23.292;2023-04-25T11:23:53;24.53;;;23.33;;
7585;SDS011;12459;42.646;23.292;2023-04-25T11:38:57;23.80;;;22.67;;
7585;SDS011;12459;42.646;23.292;2023-04-25T11:53:59;22.13;;;21.03;;
7585;SDS011;12459;42.646;23.292;2023-04-25T12:09:04;18.20;;;17.30;;
7585;SDS011;12459;42.646;23.292;2023-04-25T12:24:15;19.63;;;18.63;;
7585;SDS011;12459;42.646;23.292;2023-04-25T12:39:22;20.70;;;19.70;;
7585;SDS011;12459;42.646;23.292;2023-04-25T12:54:24;17.37;;;16.50;;
7585;SDS011;12459;42.646;23.292;2023-04-25T13:09:27;19.27;;;18.30;;
7585;SDS011;12459;42.646;23.292;2023-04-25T13:24:28;17.27;;;16.37;;
7585;SDS011;12459;42.646;23.292;2023-04-25T13:39:30;16.73;;;15.93;;
7585;SDS011;12459;42.646;23.292;2023-04-25T13:54:32;17.10;;;16.23;;
7585;SDS011;12459;42.646;23.292;2023-04-25T14:09:33;15.37;;;14.57;;
7585;SDS011;12459;42.646;23.292;2023-04-25T14:24:35;15.67;;;14.87;;
7585;SDS011;12459;42.646;23.292;2023-04-25T14:39:37;16.53;;;15.73;;
7585;SDS011;12459;42.646;23.292;2023-04-25T14:54:39;16.00;;;15.20;;
7585;SDS011;12459;42.646;23.292;2023-04-25T15:09:41;14.57;;;13.83;;
7585;SDS011;12459;42.646;23.292;2023-04-25T15:24:42;17.77;;;16.87;;
7585;SDS011;12459;42.646;23.292;2023-04-25T15:39:44;15.80;;;15.00;;
7585;SDS011;12459;42.646;23.292;2023-04-25T15:54:46;14.73;;;13.97;;
7585;SDS011;12459;42.646;23.292;2023-04-25T16:09:48;15.50;;;14.70;;
7585;SDS011;12459;42.646;23.292;2023-04-25T16:24:49;16.33;;;15.53;;
7585;SDS011;12459;42.646;23.292;2023-04-25T16:39:51;14.27;;;13.53;;
7585;SDS011;12459;42.646;23.292;2023-04-25T16:54:53;12.87;;;12.17;;
7585;SDS011;12459;42.646;23.292;2023-04-25T17:09:54;13.43;;;12.73;;
7585;SDS011;12459;42.646;23.292;2023-04-25T17:24:56;13.67;;;12.97;;
7585;SDS011;12459;42.646;23.292;2023-04-25T17:55:00;10.67;;;10.07;;
7585;SDS011;12459;42.646;23.292;2023-04-25T18:10:05;12.63;;;11.93;;
7585;SDS011;12459;42.646;23.292;2023-04-25T18:25:08;11.57;;;10.97;;
7585;SDS011;12459;42.646;23.292;2023-04-25T18:40:11;10.77;;;10.17;;
7585;SDS011;12459;42.646;23.292;2023-04-25T18:55:15;11.90;;;11.30;;
7585;SDS011;12459;42.646;23.292;2023-04-25T19:10:17;12.50;;;11.80;;
7585;SDS011;12459;42.646;23.292;2023-04-25T19:25:19;10.83;;;10.23;;
7585;SDS011;12459;42.646;23.292;2023-04-25T19:40:21;10.00;;;9.47;;
7585;SDS011;12459;42.646;23.292;2023-04-25T19:55:23;10.60;;;10.00;;
7585;SDS011;12459;42.646;23.292;2023-04-25T20:10:25;11.03;;;10.43;;
7585;SDS011;12459;42.646;23.292;2023-04-25T20:25:27;10.27;;;9.70;;
7585;SDS011;12459;42.646;23.292;2023-04-25T20:40:28;11.53;;;10.93;;
7585;SDS011;12459;42.646;23.292;2023-04-25T20:55:30;10.60;;;10.00;;
7585;SDS011;12459;42.646;23.292;2023-04-25T21:10:32;14.20;;;13.50;;
7585;SDS011;12459;42.646;23.292;2023-04-25T21:25:37;9.67;;;9.13;;
7585;SDS011;12459;42.646;23.292;2023-04-25T21:40:39;11.57;;;10.97;;
7585;SDS011;12459;42.646;23.292;2023-04-25T21:55:41;11.03;;;10.43;;
7585;SDS011;12459;42.646;23.292;2023-04-25T22:10:43;11.40;;;10.80;;
7585;SDS011;12459;42.646;23.292;2023-04-25T22:25:45;11.33;;;10.73;;
7585;SDS011;12459;42.646;23.292;2023-04-25T22:40:46;10.93;;;10.33;;
7585;SDS011;12459;42.646;23.292;2023-04-25T22:55:53;10.33;;;9.73;;
7585;SDS011;12459;42.646;23.292;2023-04-25T23:10:57;9.97;;;9.40;;
7585;SDS011;12459;42.646;23.292;2023-04-25T23:25:58;10.60;;;10.00;;
7585;SDS011;12459;42.646;23.292;2023-04-25T23:41:00;9.90;;;9.40;;
7585;SDS011;12459;42.646;23.292;2023-04-25T23:56:02;9.57;;;9.07;;
